createdAt,value
2016-09-15T00:00:21.372Z,74.71
2016-09-15T00:01:21.402Z,74.62
2016-09-15T00:02:22.034Z,74.81
2016-09-15T00:03:21.450Z,74.43
2016-09-15T00:04:21.480Z,74.71
2016-09-15T00:05:21.506Z,74.71
2016-09-15T00:06:21.532Z,74.81
2016-09-15T00:07:21.554Z,75
2016-09-15T00:08:36.509Z,74.48
2016-09-15T00:09:21.616Z,75.2
2016-09-15T00:10:21.630Z,75.54
2016-09-15T00:11:21.663Z,75.57
2016-09-15T00:12:21.686Z,75.48
2016-09-15T00:13:21.715Z,75
2016-09-15T00:14:21.743Z,76.12
2016-09-15T00:15:21.762Z,76.12
2016-09-15T00:16:21.789Z,75.82
2016-09-15T00:17:21.824Z,75.57
2016-09-15T00:18:21.839Z,75.73
2016-09-15T00:19:21.873Z,75.92
2016-09-15T00:21:21.915Z,76.12
2016-09-15T00:22:21.941Z,75.92
2016-09-15T00:23:21.968Z,75.92
2016-09-15T00:24:21.998Z,76.02
2016-09-15T00:25:22.021Z,74.96
2016-09-15T00:26:22.049Z,75.25
2016-09-15T00:27:22.077Z,75.92
2016-09-15T00:28:22.108Z,75.48
2016-09-15T00:29:22.125Z,75.48
2016-09-15T00:30:22.204Z,76.12
2016-09-15T00:31:22.185Z,75.82
2016-09-15T00:32:22.204Z,76.4
2016-09-15T00:33:22.233Z,76.21
2016-09-15T00:34:22.258Z,75.92
2016-09-15T00:35:22.283Z,76.12
2016-09-15T00:36:22.307Z,75.82
2016-09-15T00:37:22.332Z,76.69
2016-09-15T00:38:22.356Z,76.69
2016-09-15T00:39:22.388Z,76.79
2016-09-15T00:40:37.335Z,77.08
2016-09-15T00:41:22.437Z,77.23
2016-09-15T00:42:22.465Z,77.65
2016-09-15T00:43:22.506Z,77.36
2016-09-15T00:44:22.516Z,77.26
2016-09-15T00:45:22.538Z,76.59
2016-09-15T00:46:22.566Z,77.42
2016-09-15T00:47:22.594Z,78
2016-09-15T00:48:22.619Z,77.56
2016-09-15T00:49:22.646Z,77.94
2016-09-15T00:51:22.705Z,76.98
2016-09-15T00:52:22.720Z,77.17
2016-09-15T00:53:22.752Z,77.17
2016-09-15T00:54:22.770Z,77.26
2016-09-15T00:55:22.803Z,77.8
2016-09-15T00:56:37.751Z,77.23
2016-09-15T00:57:22.856Z,77.26
2016-09-15T00:58:22.874Z,77.46
2016-09-15T00:59:22.900Z,77.61
2016-09-15T01:00:22.928Z,77.71
2016-09-15T01:01:22.957Z,78.19
2016-09-15T01:02:23.026Z,77.61
2016-09-15T01:03:23.006Z,77.9
2016-09-15T01:04:23.027Z,78.57
2016-09-15T01:05:23.357Z,78.38
2016-09-15T01:06:23.085Z,78
2016-09-15T01:07:23.111Z,78.09
2016-09-15T01:08:23.132Z,77.9
2016-09-15T01:09:23.158Z,78.09
2016-09-15T01:10:23.182Z,77.9
2016-09-15T01:11:23.209Z,77.9
2016-09-15T01:12:38.161Z,78
2016-09-15T01:13:23.265Z,77.8
2016-09-15T01:14:23.291Z,78.38
2016-09-15T01:15:23.611Z,78.47
2016-09-15T01:16:23.341Z,78.47
2016-09-15T01:17:23.380Z,78.19
2016-09-15T01:18:23.390Z,77.9
2016-09-15T01:19:23.418Z,78.38
2016-09-15T01:20:23.447Z,78.67
2016-09-15T01:21:23.466Z,78.96
2016-09-15T01:22:23.493Z,78.67
2016-09-15T01:23:23.520Z,79.34
2016-09-15T01:24:23.542Z,78.77
2016-09-15T01:25:23.572Z,78.57
2016-09-15T01:26:23.595Z,78.86
2016-09-15T01:27:23.625Z,79.05
2016-09-15T01:28:38.572Z,78.47
2016-09-15T01:29:23.674Z,79.05
2016-09-15T01:30:23.700Z,79.24
2016-09-15T01:31:23.776Z,78.86
2016-09-15T01:32:23.750Z,78.67
2016-09-15T01:33:23.776Z,79.53
2016-09-15T01:34:23.799Z,79.05
2016-09-15T01:35:23.828Z,79.05
2016-09-15T01:36:23.855Z,79.49
2016-09-15T01:37:23.879Z,79.63
2016-09-15T01:38:23.904Z,80.26
2016-09-15T01:39:23.932Z,80.07
2016-09-15T01:40:23.952Z,79.97
2016-09-15T01:41:23.985Z,80.64
2016-09-15T01:42:24.010Z,79.97
2016-09-15T01:43:38.957Z,79.59
2016-09-15T01:44:24.062Z,80.16
2016-09-15T01:45:24.084Z,80.26
2016-09-15T01:46:24.110Z,79.88
2016-09-15T01:47:24.146Z,79.97
2016-09-15T01:48:24.160Z,80.45
2016-09-15T01:49:24.187Z,80.74
2016-09-15T01:50:24.211Z,80.55
2016-09-15T01:51:24.238Z,80.45
2016-09-15T01:52:24.264Z,80.83
2016-09-15T01:53:24.288Z,80.74
2016-09-15T01:54:24.314Z,81.12
2016-09-15T01:55:24.341Z,80.74
2016-09-15T01:56:24.367Z,81.12
2016-09-15T01:57:24.392Z,81.89
2016-09-15T01:58:24.417Z,80.83
2016-09-15T01:59:24.444Z,81.41
2016-09-15T02:00:24.469Z,81.12
2016-09-15T02:01:24.497Z,81.12
2016-09-15T02:02:24.517Z,81.6
2016-09-15T02:03:24.541Z,81.6
2016-09-15T02:04:24.571Z,81.6
2016-09-15T02:05:24.599Z,81.89
2016-09-15T02:06:24.619Z,81.7
2016-09-15T02:07:24.649Z,81.7
2016-09-15T02:08:24.672Z,81.41
2016-09-15T02:09:24.695Z,81.51
2016-09-15T02:10:24.725Z,81.79
2016-09-15T02:11:24.747Z,81.41
2016-09-15T02:12:24.772Z,81.79
2016-09-15T02:13:24.798Z,81.6
2016-09-15T02:14:24.824Z,82.08
2016-09-15T02:15:39.774Z,81.6
2016-09-15T02:16:24.873Z,81.98
2016-09-15T02:17:24.902Z,81.98
2016-09-15T02:18:24.925Z,81.98
2016-09-15T02:19:24.951Z,82.27
2016-09-15T02:20:24.984Z,82.23
2016-09-15T02:21:25.001Z,82.46
2016-09-15T02:22:25.027Z,82.81
2016-09-15T02:23:25.053Z,82.81
2016-09-15T02:24:25.125Z,83.09
2016-09-15T02:25:25.103Z,83
2016-09-15T02:26:25.128Z,82.71
2016-09-15T02:28:25.232Z,82.62
2016-09-15T02:29:25.205Z,82.9
2016-09-15T02:30:25.228Z,82.9
2016-09-15T02:31:40.182Z,82.9
2016-09-15T02:33:25.308Z,82.81
2016-09-15T02:34:25.332Z,82.81
2016-09-15T02:35:25.359Z,83.09
2016-09-15T02:36:25.387Z,83.48
2016-09-15T02:37:25.408Z,83.29
2016-09-15T02:38:25.436Z,83.86
2016-09-15T02:39:25.461Z,83.67
2016-09-15T02:40:25.485Z,83.67
2016-09-15T02:41:25.508Z,83.95
2016-09-15T02:42:25.542Z,84.15
2016-09-15T02:43:25.559Z,83.95
2016-09-15T02:44:25.586Z,84.15
2016-09-15T02:45:25.615Z,83.86
2016-09-15T02:46:25.639Z,83.95
2016-09-15T02:47:40.585Z,84.34
2016-09-15T02:48:25.686Z,84.44
2016-09-15T02:49:25.711Z,84.34
2016-09-15T02:50:25.738Z,84.25
2016-09-15T02:51:25.761Z,84.34
2016-09-15T02:52:25.787Z,84.82
2016-09-15T02:53:25.817Z,84.63
2016-09-15T02:54:25.838Z,84.34
2016-09-15T02:55:25.861Z,84.44
2016-09-15T02:56:25.886Z,85.11
2016-09-15T02:57:25.913Z,84.44
2016-09-15T02:58:25.942Z,84.63
2016-09-15T02:59:25.967Z,84.34
2016-09-15T03:00:25.988Z,85.01
2016-09-15T03:01:26.019Z,84.53
2016-09-15T03:02:26.037Z,85.11
2016-09-15T03:03:40.990Z,85.01
2016-09-15T03:04:26.092Z,84.97
2016-09-15T03:05:26.120Z,84.58
2016-09-15T03:06:26.142Z,84.88
2016-09-15T03:07:26.168Z,85.06
2016-09-15T03:08:26.195Z,85.25
2016-09-15T03:09:26.217Z,85.25
2016-09-15T03:10:26.244Z,84.88
2016-09-15T03:11:26.273Z,85.25
2016-09-15T03:12:26.295Z,85.25
2016-09-15T03:13:26.322Z,85.54
2016-09-15T03:15:26.368Z,85.16
2016-09-15T03:16:26.393Z,85.35
2016-09-15T03:17:26.417Z,85.25
2016-09-15T03:18:41.370Z,85.35
2016-09-15T03:20:26.500Z,85.45
2016-09-15T03:21:26.523Z,86.12
2016-09-15T03:22:26.548Z,85.64
2016-09-15T03:23:26.574Z,85.74
2016-09-15T03:24:26.599Z,85.93
2016-09-15T03:25:26.623Z,85.93
2016-09-15T03:26:26.653Z,85.83
2016-09-15T03:27:26.678Z,85.25
2016-09-15T03:28:27.004Z,85.83
2016-09-15T03:29:27.027Z,85.74
2016-09-15T03:30:26.750Z,85.83
2016-09-15T03:31:26.783Z,85.93
2016-09-15T03:32:26.802Z,85.74
2016-09-15T03:33:26.827Z,86.12
2016-09-15T03:34:26.855Z,85.93
2016-09-15T03:35:26.880Z,85.54
2016-09-15T03:36:26.903Z,86.02
2016-09-15T03:37:27.230Z,86.21
2016-09-15T03:38:26.961Z,86.5
2016-09-15T03:39:26.979Z,86.02
2016-09-15T03:40:26.999Z,86.5
2016-09-15T03:41:27.328Z,86.12
2016-09-15T03:42:27.050Z,85.93
2016-09-15T03:43:27.079Z,86.31
2016-09-15T03:44:27.100Z,86.41
2016-09-15T03:45:27.136Z,86.31
2016-09-15T03:48:27.205Z,86.88
2016-09-15T03:49:27.224Z,86.69
2016-09-15T03:50:42.174Z,86.98
2016-09-15T03:51:27.280Z,86.69
2016-09-15T03:52:27.314Z,86.69
2016-09-15T03:53:27.330Z,87.17
2016-09-15T03:54:27.349Z,86.98
2016-09-15T03:55:27.374Z,86.98
2016-09-15T03:56:27.406Z,86.41
2016-09-15T03:57:27.427Z,87.46
2016-09-15T03:58:27.457Z,87.27
2016-09-15T03:59:27.476Z,87.27
2016-09-15T04:00:27.502Z,86.88
2016-09-15T04:01:27.523Z,87.17
2016-09-15T04:02:27.553Z,88.18
2016-09-15T04:03:27.576Z,88.37
2016-09-15T04:04:27.602Z,87.13
2016-09-15T04:05:27.628Z,87.13
2016-09-15T04:06:42.576Z,87.32
2016-09-15T04:07:27.687Z,87.13
2016-09-15T04:08:27.704Z,88.18
2016-09-15T04:09:27.727Z,87.61
2016-09-15T04:10:27.750Z,87.51
2016-09-15T04:11:27.781Z,88.76
2016-09-15T04:12:27.805Z,88.47
2016-09-15T04:13:27.828Z,87.51
2016-09-15T04:14:27.856Z,87.61
2016-09-15T04:15:27.880Z,87.51
2016-09-15T04:16:27.900Z,87.7
2016-09-15T04:17:27.926Z,88.18
2016-09-15T04:18:27.961Z,87.61
2016-09-15T04:19:27.978Z,88.37
2016-09-15T04:20:28.001Z,88.09
2016-09-15T04:21:28.029Z,88.66
2016-09-15T04:22:42.976Z,87.7
2016-09-15T04:24:28.107Z,87.8
2016-09-15T04:25:28.131Z,88.37
2016-09-15T04:26:28.154Z,87.9
2016-09-15T04:27:28.182Z,88.18
2016-09-15T04:28:28.206Z,87.61
2016-09-15T04:29:28.231Z,88.09
2016-09-15T04:30:28.253Z,88.09
2016-09-15T04:31:28.283Z,88.85
2016-09-15T04:32:28.304Z,88.76
2016-09-15T04:34:28.359Z,88.66
2016-09-15T04:36:28.406Z,87.9
2016-09-15T04:38:43.376Z,87.99
2016-09-15T04:39:28.480Z,87.9
2016-09-15T04:40:28.508Z,87.9
2016-09-15T04:41:28.525Z,88.76
2016-09-15T04:42:28.554Z,88.76
2016-09-15T04:43:28.576Z,88.56
2016-09-15T04:44:28.604Z,88.95
2016-09-15T04:45:28.628Z,88.85
2016-09-15T04:46:28.655Z,88.66
2016-09-15T04:47:28.679Z,88.09
2016-09-15T04:48:28.705Z,89.04
2016-09-15T04:49:28.730Z,88.76
2016-09-15T04:51:28.777Z,88.56
2016-09-15T04:52:28.806Z,88.76
2016-09-15T04:53:43.753Z,88.37
2016-09-15T04:54:28.852Z,89.04
2016-09-15T04:55:28.885Z,89.04
2016-09-15T04:56:28.901Z,88.76
2016-09-15T04:57:28.932Z,87.99
2016-09-15T04:58:28.954Z,88.09
2016-09-15T04:59:28.983Z,87.7
2016-09-15T05:00:29.000Z,87.9
2016-09-15T05:01:29.028Z,88.18
2016-09-15T05:02:29.053Z,88.09
2016-09-15T05:03:29.082Z,87.99
2016-09-15T05:04:29.110Z,88.09
2016-09-15T05:05:29.129Z,87.99
2016-09-15T05:06:29.155Z,88.37
2016-09-15T05:07:29.182Z,88.76
2016-09-15T05:08:29.204Z,88.47
2016-09-15T05:09:29.227Z,88.37
2016-09-15T05:10:29.255Z,87.7
2016-09-15T05:11:29.281Z,87.7
2016-09-15T05:12:29.302Z,87.99
2016-09-15T05:13:29.337Z,88.18
2016-09-15T05:14:29.355Z,88.03
2016-09-15T05:15:29.379Z,87.84
2016-09-15T05:16:29.404Z,88.03
2016-09-15T05:17:29.430Z,87.46
2016-09-15T05:18:29.456Z,87.17
2016-09-15T05:19:29.475Z,87.46
2016-09-15T05:20:29.505Z,87.37
2016-09-15T05:21:29.527Z,87.65
2016-09-15T05:22:29.554Z,87.84
2016-09-15T05:23:29.577Z,87.55
2016-09-15T05:24:29.601Z,87.94
2016-09-15T05:25:44.554Z,87.17
2016-09-15T05:27:29.678Z,87.46
2016-09-15T05:28:29.708Z,87.74
2016-09-15T05:29:29.730Z,87.37
2016-09-15T05:30:29.758Z,88.13
2016-09-15T05:31:29.779Z,87.08
2016-09-15T05:32:29.807Z,87.37
2016-09-15T05:34:29.854Z,87.46
2016-09-15T05:35:29.931Z,87.17
2016-09-15T05:36:29.908Z,87.65
2016-09-15T05:37:29.931Z,87.37
2016-09-15T05:40:30.010Z,87.65
2016-09-15T05:41:44.958Z,87.46
2016-09-15T05:42:30.059Z,86.98
2016-09-15T05:43:30.087Z,86.79
2016-09-15T05:44:30.108Z,86.98
2016-09-15T05:45:30.137Z,86.98
2016-09-15T05:46:30.166Z,86.88
2016-09-15T05:47:30.182Z,87.55
2016-09-15T05:48:30.209Z,86.54
2016-09-15T05:49:30.235Z,86.07
2016-09-15T05:50:30.263Z,86.45
2016-09-15T05:51:30.287Z,87.02
2016-09-15T05:52:30.311Z,86.74
2016-09-15T05:53:30.336Z,86.45
2016-09-15T05:54:30.359Z,85.68
2016-09-15T05:56:30.414Z,83.37
2016-09-15T05:57:45.361Z,81.68
2016-09-15T05:58:30.464Z,80.82
2016-09-15T05:59:30.489Z,79.8
2016-09-15T06:00:30.514Z,78.45
2016-09-15T06:01:30.542Z,76.77
2016-09-15T06:02:30.572Z,75.65
2016-09-15T06:03:30.599Z,75.84
2016-09-15T06:04:30.630Z,74.54
2016-09-15T06:05:30.661Z,73.77
2016-09-15T06:06:30.682Z,73.42
2016-09-15T06:07:30.727Z,73.03
2016-09-15T06:08:30.747Z,72.74
2016-09-15T06:09:30.772Z,71.59
2016-09-15T06:10:30.804Z,71.24
2016-09-15T06:11:31.132Z,70.56
2016-09-15T06:12:30.867Z,69.73
2016-09-15T06:13:45.824Z,68.29
2016-09-15T06:14:30.927Z,67.46
2016-09-15T06:15:30.970Z,68.52
2016-09-15T06:16:30.989Z,68.8
2016-09-15T06:17:31.321Z,67.84
2016-09-15T06:18:31.057Z,67.16
2016-09-15T06:19:31.089Z,65.95
2016-09-15T06:20:31.119Z,65.08
2016-09-15T06:21:31.159Z,64.92
2016-09-15T06:22:31.188Z,64.82
2016-09-15T06:23:31.223Z,64.82
2016-09-15T06:24:31.255Z,64.43
2016-09-15T06:26:31.323Z,63.67
2016-09-15T06:27:31.354Z,63.02
2016-09-15T06:28:46.318Z,63.12
2016-09-15T06:29:31.425Z,62.54
2016-09-15T06:32:31.523Z,60.93
2016-09-15T06:33:31.563Z,60.44
2016-09-15T06:34:31.599Z,60.35
2016-09-15T06:35:31.634Z,60.73
2016-09-15T06:36:31.675Z,60.54
2016-09-15T06:37:31.705Z,60.57
2016-09-15T06:38:31.733Z,59.51
2016-09-15T06:39:31.774Z,58.95
2016-09-15T06:41:31.839Z,58.37
2016-09-15T06:43:31.910Z,59.31
2016-09-15T06:44:31.945Z,59.8
2016-09-15T06:45:31.985Z,58.86
2016-09-15T06:46:32.012Z,58.86
2016-09-15T06:47:32.051Z,58.18
2016-09-15T06:48:32.087Z,57.6
2016-09-15T06:49:32.118Z,57.63
2016-09-15T06:50:32.158Z,57.05
2016-09-15T06:51:32.194Z,57.08
2016-09-15T06:52:32.224Z,56.76
2016-09-15T06:53:32.265Z,58.02
2016-09-15T06:54:32.352Z,57.99
2016-09-15T06:55:32.342Z,57.99
2016-09-15T06:56:32.370Z,56.47
2016-09-15T06:57:32.404Z,56.6
2016-09-15T06:58:32.441Z,56.79
2016-09-15T06:59:32.475Z,56.88
2016-09-15T07:00:47.440Z,55.15
2016-09-15T07:01:32.548Z,55.36
2016-09-15T07:02:32.587Z,55.07
2016-09-15T07:03:32.630Z,54.69
2016-09-15T07:04:32.655Z,55.43
2016-09-15T07:05:32.689Z,55.63
2016-09-15T07:06:32.731Z,56.88
2016-09-15T07:07:32.767Z,55.63
2016-09-15T07:08:32.807Z,54.98
2016-09-15T07:09:32.837Z,55.17
2016-09-15T07:10:32.870Z,55.63
2016-09-15T07:11:32.904Z,55.53
2016-09-15T07:13:32.975Z,54.01
2016-09-15T07:14:33.015Z,53.81
2016-09-15T07:15:33.055Z,54.11
2016-09-15T07:16:48.014Z,53.17
2016-09-15T07:17:33.125Z,53.23
2016-09-15T07:19:33.195Z,52.87
2016-09-15T07:20:33.227Z,53.07
2016-09-15T07:21:33.266Z,53.45
2016-09-15T07:22:33.302Z,52.29
2016-09-15T07:23:33.336Z,52.22
2016-09-15T07:24:33.380Z,52.97
2016-09-15T07:25:33.421Z,52.87
2016-09-15T07:26:33.446Z,52.78
2016-09-15T07:27:33.483Z,52.58
2016-09-15T07:28:33.518Z,52.87
2016-09-15T07:29:33.554Z,52.78
2016-09-15T07:30:33.595Z,52
2016-09-15T07:31:33.627Z,51.13
2016-09-15T07:32:48.591Z,51.16
2016-09-15T07:33:33.695Z,50.87
2016-09-15T07:34:33.735Z,51.06
2016-09-15T07:35:33.772Z,50.57
2016-09-15T07:36:33.807Z,50.5
2016-09-15T07:37:33.846Z,50.21
2016-09-15T07:38:33.876Z,49.54
2016-09-15T07:39:33.914Z,49.15
2016-09-15T07:40:33.956Z,49.92
2016-09-15T07:41:33.988Z,50.5
2016-09-15T07:42:34.023Z,48.85
2016-09-15T07:43:34.056Z,49.46
2016-09-15T07:45:34.133Z,48.69
2016-09-15T07:46:34.168Z,48.13
2016-09-15T07:47:34.204Z,47.83
2016-09-15T07:48:49.167Z,47.55
2016-09-15T07:50:34.314Z,47.25
2016-09-15T07:51:34.355Z,47.16
2016-09-15T07:52:34.389Z,47.35
2016-09-15T07:53:34.416Z,47.55
2016-09-15T07:54:34.456Z,47.91
2016-09-15T07:55:35.541Z,47.35
2016-09-15T07:56:34.520Z,47.91
2016-09-15T07:57:34.561Z,47.64
2016-09-15T07:58:34.592Z,47.91
2016-09-15T07:59:34.627Z,47.74
2016-09-15T08:00:34.663Z,47.64
2016-09-15T08:01:34.703Z,47.55
2016-09-15T08:03:49.699Z,46.69
2016-09-15T08:04:34.809Z,46.79
2016-09-15T08:05:34.845Z,47.16
2016-09-15T08:06:34.876Z,46.38
2016-09-15T08:07:34.919Z,47.16
2016-09-15T08:08:34.966Z,47.45
2016-09-15T08:09:34.985Z,46.69
2016-09-15T08:10:35.025Z,46.79
2016-09-15T08:11:35.052Z,47.08
2016-09-15T08:12:35.095Z,46.6
2016-09-15T08:13:35.126Z,46.21
2016-09-15T08:14:35.163Z,46.6
2016-09-15T08:15:35.198Z,47.25
2016-09-15T08:17:35.267Z,45.55
2016-09-15T08:18:35.307Z,45.84
2016-09-15T08:19:35.340Z,45.34
2016-09-15T08:20:35.373Z,45.45
2016-09-15T08:21:35.411Z,44.78
2016-09-15T08:22:35.440Z,44.51
2016-09-15T08:23:35.488Z,44.97
2016-09-15T08:24:35.514Z,44.58
2016-09-15T08:25:35.551Z,44.21
2016-09-15T08:26:35.580Z,43.73
2016-09-15T08:27:35.621Z,43.82
2016-09-15T08:28:35.654Z,44.02
2016-09-15T08:29:35.692Z,43.46
2016-09-15T08:30:35.726Z,43.48
2016-09-15T08:31:35.759Z,43.19
2016-09-15T08:32:35.797Z,42.49
2016-09-15T08:33:35.833Z,42.39
2016-09-15T08:34:35.864Z,42.68
2016-09-15T08:35:50.824Z,43.55
2016-09-15T08:36:35.933Z,43.65
2016-09-15T08:37:35.982Z,43.65
2016-09-15T08:38:36.006Z,43.95
2016-09-15T08:39:36.039Z,43.63
2016-09-15T08:40:36.072Z,43.65
2016-09-15T08:41:36.407Z,43.44
2016-09-15T08:42:36.142Z,43.92
2016-09-15T08:43:36.180Z,43.61
2016-09-15T08:44:36.215Z,43.82
2016-09-15T08:45:36.251Z,42.97
2016-09-15T08:46:36.281Z,42.6
2016-09-15T08:47:36.317Z,42.99
2016-09-15T08:48:36.353Z,42.1
2016-09-15T08:49:36.388Z,43.46
2016-09-15T08:50:36.427Z,43.63
2016-09-15T08:51:51.383Z,43.73
2016-09-15T08:52:36.491Z,42.87
2016-09-15T08:54:36.560Z,43.07
2016-09-15T08:55:36.606Z,42.78
2016-09-15T08:56:36.634Z,43.34
2016-09-15T08:57:36.667Z,43.44
2016-09-15T08:58:36.700Z,42.95
2016-09-15T08:59:36.736Z,42.85
2016-09-15T09:00:36.773Z,43.73
2016-09-15T09:01:36.801Z,43.73
2016-09-15T09:02:36.842Z,42.39
2016-09-15T09:03:36.872Z,42.1
2016-09-15T09:04:36.907Z,42.58
2016-09-15T09:05:36.943Z,42.6
2016-09-15T09:06:36.979Z,42.87
2016-09-15T09:07:51.934Z,42.78
2016-09-15T09:09:37.075Z,41.9
2016-09-15T09:10:37.113Z,42.78
2016-09-15T09:11:37.145Z,42.31
2016-09-15T09:12:37.185Z,41.34
2016-09-15T09:13:37.218Z,41.55
2016-09-15T09:14:37.254Z,41.85
2016-09-15T09:15:37.280Z,42.31
2016-09-15T09:16:37.322Z,41.73
2016-09-15T09:17:37.353Z,41.93
2016-09-15T09:18:37.389Z,41.93
2016-09-15T09:19:37.421Z,40.97
2016-09-15T09:20:37.459Z,40.66
2016-09-15T09:21:37.492Z,41.05
2016-09-15T09:22:37.530Z,41.22
2016-09-15T09:23:52.533Z,40.56
2016-09-15T09:24:37.592Z,40.66
2016-09-15T09:25:37.631Z,40.56
2016-09-15T09:26:37.656Z,40.19
2016-09-15T09:27:37.698Z,41.16
2016-09-15T09:28:37.729Z,40.09
2016-09-15T09:29:37.760Z,39.9
2016-09-15T09:30:37.794Z,40
2016-09-15T09:31:37.828Z,39.8
2016-09-15T09:32:37.865Z,40.19
2016-09-15T09:33:37.898Z,40.68
2016-09-15T09:34:37.934Z,40.66
2016-09-15T09:35:37.961Z,41.24
2016-09-15T09:36:38.002Z,42
2016-09-15T09:37:38.032Z,41.9
2016-09-15T09:38:52.993Z,41.8
2016-09-15T09:39:38.104Z,41.32
2016-09-15T09:40:38.136Z,41.71
2016-09-15T09:41:38.169Z,41.9
2016-09-15T09:42:38.206Z,42.1
2016-09-15T09:43:38.251Z,41.24
2016-09-15T09:44:38.267Z,42.1
2016-09-15T09:45:38.301Z,41.32
2016-09-15T09:46:38.339Z,41.14
2016-09-15T09:47:38.372Z,41.63
2016-09-15T09:48:38.400Z,41.42
2016-09-15T09:49:38.441Z,41.51
2016-09-15T09:50:38.478Z,41.42
2016-09-15T09:51:38.504Z,40.66
2016-09-15T09:52:38.541Z,40.48
2016-09-15T09:53:38.567Z,40.56
2016-09-15T09:55:38.635Z,40.27
2016-09-15T09:56:38.670Z,40.48
2016-09-15T09:57:38.704Z,40.29
2016-09-15T09:58:38.738Z,40.39
2016-09-15T09:59:38.774Z,40.68
2016-09-15T10:00:38.805Z,40.47
2016-09-15T10:01:38.837Z,40.95
2016-09-15T10:02:38.874Z,40.95
2016-09-15T10:03:38.904Z,41.14
2016-09-15T10:04:38.940Z,41.05
2016-09-15T10:05:38.977Z,41.71
2016-09-15T10:06:39.009Z,42
2016-09-15T10:07:39.037Z,42.68
2016-09-15T10:08:39.073Z,42.78
2016-09-15T10:09:39.107Z,43.16
2016-09-15T10:10:54.066Z,42.66
2016-09-15T10:12:39.207Z,43.15
2016-09-15T10:13:39.235Z,43.61
2016-09-15T10:14:39.273Z,43.98
2016-09-15T10:15:39.301Z,44.44
2016-09-15T10:16:39.337Z,43.86
2016-09-15T10:17:39.378Z,44.71
2016-09-15T10:18:39.404Z,44.81
2016-09-15T10:19:39.446Z,45.2
2016-09-15T10:20:39.473Z,45.78
2016-09-15T10:21:39.500Z,45.39
2016-09-15T10:22:39.537Z,45.41
2016-09-15T10:23:39.573Z,45.31
2016-09-15T10:25:39.630Z,44.15
2016-09-15T10:26:54.593Z,44.15
2016-09-15T10:27:39.747Z,44.34
2016-09-15T10:28:39.734Z,44.32
2016-09-15T10:29:39.764Z,44.15
2016-09-15T10:30:39.792Z,44.32
2016-09-15T10:31:39.832Z,44.32
2016-09-15T10:32:39.864Z,44.05
2016-09-15T10:33:39.893Z,44.32
2016-09-15T10:34:39.929Z,44.32
2016-09-15T10:35:39.960Z,44.13
2016-09-15T10:36:39.990Z,44.13
2016-09-15T10:37:40.019Z,43.45
2016-09-15T10:39:40.084Z,43.26
2016-09-15T10:40:40.116Z,43.64
2016-09-15T10:41:40.150Z,44.32
2016-09-15T10:42:55.104Z,43.84
2016-09-15T10:43:40.214Z,43.84
2016-09-15T10:44:40.246Z,44.32
2016-09-15T10:45:40.272Z,44.59
2016-09-15T10:46:40.307Z,44.4
2016-09-15T10:47:40.339Z,44.4
2016-09-15T10:48:40.368Z,44.88
2016-09-15T10:49:40.397Z,44.71
2016-09-15T10:50:40.435Z,44.23
2016-09-15T10:51:40.461Z,43.84
2016-09-15T10:52:40.493Z,42.48
2016-09-15T10:53:40.525Z,43.26
2016-09-15T10:54:40.553Z,43.45
2016-09-15T10:55:40.587Z,43.16
2016-09-15T10:56:40.613Z,42.77
2016-09-15T10:57:40.951Z,42.86
2016-09-15T10:58:55.604Z,42.67
2016-09-15T10:59:40.709Z,42.86
2016-09-15T11:00:40.740Z,41.99
2016-09-15T11:01:40.774Z,42.19
2016-09-15T11:02:40.800Z,42.46
2016-09-15T11:03:40.838Z,42.65
2016-09-15T11:04:40.867Z,43.33
2016-09-15T11:05:40.942Z,43.13
2016-09-15T11:06:40.929Z,42.65
2016-09-15T11:07:40.954Z,43.43
2016-09-15T11:08:40.987Z,42.86
2016-09-15T11:09:41.014Z,42.38
2016-09-15T11:10:41.048Z,43.43
2016-09-15T11:11:41.132Z,43.33
2016-09-15T11:12:41.108Z,43.91
2016-09-15T11:13:56.064Z,43.33
2016-09-15T11:15:41.199Z,43.62
2016-09-15T11:16:41.235Z,43.72
2016-09-15T11:17:41.256Z,43.52
2016-09-15T11:18:41.303Z,42.77
2016-09-15T11:19:41.319Z,42.29
2016-09-15T11:20:41.352Z,42.09
2016-09-15T11:21:41.384Z,42.86
2016-09-15T11:22:41.413Z,42.94
2016-09-15T11:23:41.446Z,42.26
2016-09-15T11:24:41.473Z,42.75
2016-09-15T11:25:41.504Z,42.57
2016-09-15T11:26:41.533Z,42.48
2016-09-15T11:27:41.564Z,41.61
2016-09-15T11:28:41.592Z,41.8
2016-09-15T11:29:41.627Z,41.31
2016-09-15T11:30:41.652Z,42.57
2016-09-15T11:31:41.685Z,42.48
2016-09-15T11:32:42.769Z,41.8
2016-09-15T11:33:41.745Z,41.63
2016-09-15T11:34:42.080Z,41.43
2016-09-15T11:36:41.836Z,41.61
2016-09-15T11:37:41.863Z,41.51
2016-09-15T11:38:41.899Z,41.7
2016-09-15T11:39:41.927Z,41.51
2016-09-15T11:40:41.957Z,42.29
2016-09-15T11:41:41.983Z,42.19
2016-09-15T11:44:42.080Z,41.41
2016-09-15T11:45:57.035Z,41.51
2016-09-15T11:46:42.136Z,41.41
2016-09-15T11:47:42.170Z,41.12
2016-09-15T11:48:42.199Z,41.8
2016-09-15T11:49:42.229Z,41.51
2016-09-15T11:50:42.260Z,42.19
2016-09-15T11:51:42.289Z,41.61
2016-09-15T11:52:42.318Z,41.41
2016-09-15T11:53:42.358Z,42.19
2016-09-15T11:54:42.377Z,41.41
2016-09-15T11:55:42.409Z,41.31
2016-09-15T11:56:42.434Z,42.57
2016-09-15T11:58:42.497Z,41.14
2016-09-15T11:59:42.523Z,41.72
2016-09-15T12:00:42.559Z,41.82
2016-09-15T12:01:57.512Z,40.73
2016-09-15T12:02:42.621Z,40.34
2016-09-15T12:03:42.645Z,39.2
2016-09-15T12:04:42.673Z,39.01
2016-09-15T12:05:42.710Z,38.42
2016-09-15T12:06:42.739Z,38.04
2016-09-15T12:07:42.774Z,37.45
2016-09-15T12:08:42.809Z,37.28
2016-09-15T12:09:42.826Z,38.04
2016-09-15T12:10:42.854Z,38.71
2016-09-15T12:11:42.887Z,39.2
2016-09-15T12:12:42.918Z,38.32
2016-09-15T12:13:42.944Z,38.13
2016-09-15T12:14:43.280Z,37.84
2016-09-15T12:15:43.006Z,37.94
2016-09-15T12:16:43.039Z,37.94
2016-09-15T12:17:57.988Z,37.74
2016-09-15T12:18:43.093Z,37.76
2016-09-15T12:19:43.124Z,37.37
2016-09-15T12:20:43.155Z,37.28
2016-09-15T12:21:43.187Z,38.06
2016-09-15T12:22:43.212Z,37.37
2016-09-15T12:23:43.250Z,37.57
2016-09-15T12:24:43.273Z,36.99
2016-09-15T12:25:43.306Z,37.86
2016-09-15T12:26:43.329Z,37.37
2016-09-15T12:27:43.364Z,38.04
2016-09-15T12:28:43.389Z,38.06
2016-09-15T12:29:43.423Z,37.08
2016-09-15T12:31:43.485Z,37.08
2016-09-15T12:32:43.515Z,36.87
2016-09-15T12:33:58.465Z,37.45
2016-09-15T12:34:43.581Z,37.07
2016-09-15T12:35:43.603Z,37.26
2016-09-15T12:36:43.633Z,37.35
2016-09-15T12:37:43.709Z,37.92
2016-09-15T12:38:43.690Z,38.02
2016-09-15T12:39:43.720Z,38.04
2016-09-15T12:40:43.750Z,37.74
2016-09-15T12:41:43.779Z,38.04
2016-09-15T12:42:43.816Z,37.26
2016-09-15T12:43:43.843Z,37.55
2016-09-15T12:44:43.868Z,36.79
2016-09-15T12:45:43.897Z,36.99
2016-09-15T12:47:43.963Z,36.21
2016-09-15T12:48:58.917Z,36.3
2016-09-15T12:49:44.022Z,35.14
2016-09-15T12:50:44.048Z,34.75
2016-09-15T12:51:44.076Z,34.85
2016-09-15T12:52:44.114Z,34.75
2016-09-15T12:53:44.140Z,34.75
2016-09-15T12:54:44.169Z,33.78
2016-09-15T12:55:44.198Z,34.17
2016-09-15T12:56:44.229Z,33.59
2016-09-15T12:57:44.266Z,33.59
2016-09-15T12:58:44.298Z,32.91
2016-09-15T12:59:44.322Z,33.29
2016-09-15T13:00:44.345Z,33.88
2016-09-15T13:01:44.378Z,33.11
2016-09-15T13:02:44.406Z,33.39
2016-09-15T13:03:44.442Z,33.59
2016-09-15T13:04:44.471Z,33.47
2016-09-15T13:05:44.502Z,33.59
2016-09-15T13:06:44.526Z,33.98
2016-09-15T13:07:44.562Z,33.98
2016-09-15T13:08:44.586Z,33.88
2016-09-15T13:09:44.615Z,34.17
2016-09-15T13:10:44.645Z,33.78
2016-09-15T13:11:44.679Z,34.17
2016-09-15T13:12:44.758Z,34.08
2016-09-15T13:13:44.737Z,33.98
2016-09-15T13:14:44.769Z,34.56
2016-09-15T13:15:44.795Z,34.75
2016-09-15T13:16:44.823Z,34.66
2016-09-15T13:17:44.854Z,34.66
2016-09-15T13:19:44.914Z,33.02
2016-09-15T13:20:59.871Z,32.92
2016-09-15T13:21:44.974Z,32.73
2016-09-15T13:22:45.003Z,33.11
2016-09-15T13:23:45.035Z,32.91
2016-09-15T13:24:45.062Z,32.81
2016-09-15T13:25:45.093Z,32.81
2016-09-15T13:26:45.122Z,33.78
2016-09-15T13:27:45.153Z,33.88
2016-09-15T13:28:45.484Z,34.08
2016-09-15T13:29:45.212Z,34.56
2016-09-15T13:30:45.241Z,34.56
2016-09-15T13:31:45.277Z,34.75
2016-09-15T13:32:45.305Z,34.66
2016-09-15T13:33:45.335Z,35.24
2016-09-15T13:34:45.360Z,34.85
2016-09-15T13:35:45.392Z,34.85
2016-09-15T13:37:00.349Z,34.85
2016-09-15T13:37:45.451Z,35.14
2016-09-15T13:39:45.516Z,34.64